Etusivu
METAR-TAF:

METAR-TAF

Lentoasemat :

Tri-County Regional Airport

Lone Rock, Wisconsin, Yhdysvallat

Leveyspiiri: 43-12-43N, Pituuspiiri: 090-10-53W, korkeus merenpinnasta: 219 m

Tämänhetkinen sää

Tämä raportti tehtiin 52 minuuttia sitten, kello 16.56 UTC
Tuuli 6 kn idästä
Lämpötila -1°C
Kosteus 93%
Ilmanpaine 1017 hPa
Näkyvyys: 8.0 km
Pilvistä 1200 ft:n korkeudessa
utua

METAR: KLNR 231656Z AUTO 09006KT 5SM BR OVC012 M01/M02 A3003 RMK AO2 SLP172 T10061022

Aika: 11:48 (17:48 UTC)


TAF: puuttuu

Säähavainnot ja -ennusteet yli 4000 lentoasemalta (METAR- ja TAF-raportit).

Käytössä olevat sääasemat on merkitty karttaan keltaisilla ja punaisilla pisteillä.

Aseta hiiri pisteen päälle nähdäksesi sääaseman nimen.

Klikkaa sitten nähdäksesi säähavainnot ja -ennusteet.

Kartan vaihtaminen: klikkaa mustalla rastilla varustettuja vihreitä pisteitä, niin voit zoomata sisään; viivalla varustettua vihreää pistettä, niin voit zoomata ulos tai vihreitä nuolia, niin pääset viereisille kartoille.


METAR-TAF: